Time;durP1;ratioP1;P1;durP2;ratioP2;P2;SDS_P1;SDS_P2;PMS_P1;PMS_P2;Temp;Humidity;BMP_temperature;BMP_pressure;BME280_temperature;BME280_humidity;BME280_pressure;Samples;Min_cycle;Max_cycle;Signal;HPM_P1;HPM_P2
2023/02/20 00:00:40;;;;;;;8.80;6.63;;;7.30;99.90;;;;;;5071984;28;20024;-82
2023/02/20 00:03:06;;;;;;;7.30;6.22;;;7.30;99.90;;;;;;5070062;28;20448;-82
2023/02/20 00:05:33;;;;;;;7.55;6.75;;;7.40;99.90;;;;;;5071765;28;20021;-83
2023/02/20 00:07:58;;;;;;;7.55;6.70;;;7.40;99.90;;;;;;5072050;28;20110;-84
2023/02/20 00:10:24;;;;;;;7.78;6.90;;;7.30;99.90;;;;;;5071444;28;20499;-83
2023/02/20 00:12:51;;;;;;;7.88;6.88;;;7.20;99.90;;;;;;5071964;28;20025;-82
2023/02/20 00:15:18;;;;;;;6.95;6.35;;;7.30;99.90;;;;;;5071593;28;20025;-82
2023/02/20 00:17:48;;;;;;;8.25;6.90;;;7.50;99.90;;;;;;5071242;28;20043;-83
2023/02/20 00:20:15;;;;;;;7.00;6.30;;;7.40;99.90;;;;;;5071694;28;20078;-82
2023/02/20 00:22:41;;;;;;;7.70;6.85;;;7.30;99.90;;;;;;5071900;28;20435;-83
2023/02/20 00:25:07;;;;;;;7.65;6.95;;;7.40;99.90;;;;;;5071676;28;20029;-82
2023/02/20 00:27:32;;;;;;;9.30;6.93;;;7.20;99.90;;;;;;5071373;28;20044;-82
2023/02/20 00:29:58;;;;;;;7.38;6.60;;;7.20;99.90;;;;;;5071789;28;20021;-82
2023/02/20 00:32:24;;;;;;;8.43;6.80;;;7.20;99.90;;;;;;5070982;28;20037;-82
2023/02/20 00:34:50;;;;;;;7.50;6.70;;;7.20;99.90;;;;;;5071961;28;20078;-82
2023/02/20 00:37:16;;;;;;;7.63;6.43;;;7.30;99.90;;;;;;5074894;28;20040;-82
2023/02/20 00:39:41;;;;;;;8.68;7.25;;;7.20;99.90;;;;;;5075526;28;20019;-83
2023/02/20 00:42:07;;;;;;;8.73;7.35;;;7.20;99.90;;;;;;5074878;28;20047;-84
2023/02/20 00:44:33;;;;;;;8.25;7.35;;;7.20;99.90;;;;;;5075259;28;20029;-82
2023/02/20 00:46:58;;;;;;;8.60;7.70;;;7.00;99.90;;;;;;5074700;28;20024;-84
2023/02/20 00:49:24;;;;;;;8.55;7.68;;;7.10;99.90;;;;;;5074857;28;20025;-84
2023/02/20 00:51:50;;;;;;;8.32;7.55;;;7.10;99.90;;;;;;5075373;28;20051;-84
2023/02/20 00:54:15;;;;;;;8.82;7.93;;;7.10;99.90;;;;;;5075014;28;20020;-85
2023/02/20 00:56:41;;;;;;;8.82;7.95;;;7.00;99.90;;;;;;5074832;28;20579;-84
2023/02/20 00:59:07;;;;;;;9.10;8.18;;;7.00;99.90;;;;;;5074909;28;20066;-84
2023/02/20 01:01:32;;;;;;;8.80;7.90;;;7.10;99.90;;;;;;5074810;28;20110;-85
2023/02/20 01:03:58;;;;;;;7.05;6.32;;;7.00;99.90;;;;;;5075083;28;20052;-84
2023/02/20 01:06:24;;;;;;;7.28;6.50;;;6.70;99.90;;;;;;5074685;28;20024;-84
2023/02/20 01:08:50;;;;;;;7.93;7.13;;;6.40;99.90;;;;;;5074844;28;20035;-84
2023/02/20 01:11:15;;;;;;;7.82;7.03;;;6.70;99.90;;;;;;5074907;28;20051;-84
2023/02/20 01:13:41;;;;;;;8.88;7.55;;;6.80;99.90;;;;;;5074642;28;20473;-84
2023/02/20 01:16:07;;;;;;;8.23;7.30;;;6.90;99.90;;;;;;5074454;28;20027;-84
2023/02/20 01:18:33;;;;;;;8.63;7.70;;;6.90;99.90;;;;;;5074484;28;20115;-84
2023/02/20 01:20:58;;;;;;;9.40;7.75;;;6.80;99.90;;;;;;5074657;28;20055;-84
2023/02/20 01:23:24;;;;;;;8.85;7.95;;;6.70;99.90;;;;;;5074650;28;20028;-84
2023/02/20 01:25:50;;;;;;;9.45;7.95;;;6.90;99.90;;;;;;5074472;28;20020;-83
2023/02/20 01:28:15;;;;;;;9.82;8.27;;;7.00;99.90;;;;;;5074601;28;20051;-84
2023/02/20 01:30:41;;;;;;;7.57;6.78;;;6.30;99.90;;;;;;5074155;28;20024;-83
2023/02/20 01:33:07;;;;;;;7.10;6.40;;;6.00;99.90;;;;;;5074259;28;20033;-84
2023/02/20 01:35:32;;;;;;;7.78;6.85;;;5.80;99.90;;;;;;5074354;28;20032;-84
2023/02/20 01:37:59;;;;;;;10.75;7.97;;;6.10;99.90;;;;;;5074162;28;20036;-83
2023/02/20 01:40:26;;;;;;;9.50;8.15;;;6.60;99.90;;;;;;5074059;28;20028;-85
2023/02/20 01:42:52;;;;;;;8.40;7.32;;;6.40;99.90;;;;;;5074020;28;20136;-84
2023/02/20 01:45:29;;;;;;;7.80;6.88;;;6.50;99.90;;;;;;5073893;28;20480;-83
2023/02/20 01:47:57;;;;;;;9.02;7.78;;;6.60;99.90;;;;;;5073812;28;20538;-84
2023/02/20 01:50:37;;;;;;;8.90;8.00;;;6.60;99.90;;;;;;5073896;28;20492;-83
2023/02/20 01:53:09;;;;;;;8.15;7.30;;;6.70;99.90;;;;;;5073155;28;20032;-84
2023/02/20 01:55:44;;;;;;;8.90;7.28;;;6.70;99.90;;;;;;5073385;28;20111;-84
2023/02/20 01:58:30;;;;;;;9.90;7.15;;;6.80;99.90;;;;;;5074036;28;20059;-84
2023/02/20 02:00:57;;;;;;;8.77;7.60;;;5.90;99.90;;;;;;5073821;28;20497;-84
2023/02/20 02:03:27;;;;;;;8.23;7.05;;;5.70;99.90;;;;;;5074139;28;20040;-84
2023/02/20 02:05:59;;;;;;;8.30;7.50;;;5.90;99.90;;;;;;5073808;28;20029;-83
2023/02/20 02:08:26;;;;;;;8.70;7.90;;;6.00;99.90;;;;;;5073491;28;20031;-84
2023/02/20 02:10:56;;;;;;;9.57;7.80;;;6.00;99.90;;;;;;5073731;28;20478;-83
2023/02/20 02:13:22;;;;;;;8.48;7.40;;;6.20;99.90;;;;;;5073331;28;20025;-84
2023/02/20 02:15:57;;;;;;;7.95;7.25;;;6.20;99.90;;;;;;5073621;28;20028;-84
2023/02/20 02:18:29;;;;;;;8.20;7.32;;;6.40;99.90;;;;;;5073509;28;20097;-84
2023/02/20 02:20:57;;;;;;;7.97;6.93;;;5.90;99.90;;;;;;5073364;28;20488;-83
2023/02/20 02:23:34;;;;;;;8.70;6.68;;;5.60;99.90;;;;;;5073269;28;20028;-84
2023/02/20 02:26:36;;;;;;;8.30;7.28;;;5.60;99.90;;;;;;5073303;28;20020;-84
2023/02/20 02:29:12;;;;;;;9.85;8.27;;;5.70;99.90;;;;;;5072792;28;20485;-84
2023/02/20 02:32:05;;;;;;;7.10;6.40;;;6.00;99.90;;;;;;5073052;28;20460;-84
2023/02/20 02:35:13;;;;;;;8.73;7.80;;;5.90;99.90;;;;;;5073438;28;20052;-84
2023/02/20 02:37:44;;;;;;;8.48;7.68;;;5.80;99.90;;;;;;5070326;28;20044;-84
2023/02/20 02:40:16;;;;;;;9.70;8.48;;;5.90;99.90;;;;;;5072974;28;20017;-83
2023/02/20 02:42:50;;;;;;;11.23;9.15;;;6.00;99.90;;;;;;5072607;28;20072;-84
2023/02/20 02:45:18;;;;;;;9.23;8.23;;;6.10;99.90;;;;;;5072969;28;20398;-83
2023/02/20 02:48:01;;;;;;;10.23;9.13;;;5.90;99.90;;;;;;5072889;28;20457;-84
2023/02/20 02:50:35;;;;;;;10.48;8.63;;;5.70;99.90;;;;;;5073078;28;20451;-83
2023/02/20 02:53:07;;;;;;;9.40;7.68;;;5.50;99.90;;;;;;5072847;28;20029;-84
2023/02/20 02:55:32;;;;;;;9.05;8.15;;;5.30;99.90;;;;;;5072479;28;20362;-84
2023/02/20 02:57:59;;;;;;;8.85;7.57;;;5.60;99.90;;;;;;5071631;28;20131;-84
2023/02/20 03:00:46;;;;;;;8.88;7.97;;;5.40;99.90;;;;;;5072723;28;20021;-84
2023/02/20 03:03:20;;;;;;;9.20;8.30;;;5.40;99.90;;;;;;5072672;28;20081;-84
2023/02/20 03:06:00;;;;;;;8.65;7.65;;;5.60;99.90;;;;;;5072586;28;20507;-84
2023/02/20 03:08:36;;;;;;;10.45;8.75;;;5.70;99.90;;;;;;5072550;28;20031;-84
2023/02/20 03:11:13;;;;;;;9.32;8.43;;;5.80;99.90;;;;;;5072191;28;20100;-83
2023/02/20 03:16:49;;;;;;;9.15;8.13;;;5.40;99.90;;;;;;5073171;28;20170;-83
2023/02/20 03:19:19;;;;;;;9.25;8.35;;;5.50;99.90;;;;;;5072478;28;20021;-83
2023/02/20 03:21:47;;;;;;;9.23;8.27;;;5.50;99.90;;;;;;5072420;28;20476;-83
2023/02/20 03:24:19;;;;;;;8.60;7.55;;;5.60;99.90;;;;;;5072430;28;20023;-83
2023/02/20 03:26:45;;;;;;;9.25;8.35;;;5.30;99.90;;;;;;5072195;28;20051;-84
2023/02/20 03:29:34;;;;;;;9.75;8.00;;;5.40;99.90;;;;;;5072450;28;20123;-83
2023/02/20 03:43:23;;;;;;;9.75;8.35;;;5.80;99.90;;;;;;5072217;28;20055;-83
2023/02/20 03:45:51;;;;;;;9.68;8.55;;;5.30;99.90;;;;;;5072521;28;20531;-83
2023/02/20 03:48:29;;;;;;;10.63;9.02;;;5.50;99.90;;;;;;5071986;28;20025;-84
2023/02/20 03:53:41;;;;;;;10.90;8.80;;;5.10;99.90;;;;;;5072045;28;20396;-83
2023/02/20 03:56:14;;;;;;;10.45;8.73;;;5.10;99.90;;;;;;5071736;28;20025;-83
2023/02/20 03:58:52;;;;;;;9.30;8.40;;;5.10;99.90;;;;;;5072085;28;20480;-83
2023/02/20 04:01:20;;;;;;;10.45;8.82;;;5.20;99.90;;;;;;5071964;28;20021;-83
2023/02/20 04:03:50;;;;;;;9.05;8.15;;;5.60;99.90;;;;;;5071999;28;20473;-83
2023/02/20 04:06:17;;;;;;;8.73;7.93;;;5.70;99.90;;;;;;5072267;28;20039;-84
2023/02/20 04:08:58;;;;;;;10.52;8.73;;;5.50;99.90;;;;;;5072046;28;20028;-84
2023/02/20 04:11:41;;;;;;;11.48;10.27;;;5.50;99.90;;;;;;5075926;28;20083;-83
2023/02/20 04:14:08;;;;;;;12.15;10.75;;;5.70;99.90;;;;;;5075867;28;20103;-84
2023/02/20 04:16:40;;;;;;;11.65;10.45;;;5.60;99.90;;;;;;5075653;28;20115;-84
2023/02/20 04:19:06;;;;;;;12.90;11.02;;;5.50;99.90;;;;;;5075587;28;20538;-84
2023/02/20 04:21:38;;;;;;;10.43;9.43;;;5.50;99.90;;;;;;5076024;28;20164;-83
2023/02/20 04:24:36;;;;;;;11.02;9.48;;;5.30;99.90;;;;;;5075446;28;20115;-83
2023/02/20 04:27:02;;;;;;;9.93;8.75;;;5.00;99.90;;;;;;5053174;28;20048;-83
2023/02/20 04:29:28;;;;;;;10.95;9.88;;;5.10;99.90;;;;;;5053196;28;20033;-84
2023/02/20 04:31:53;;;;;;;10.88;9.77;;;5.30;99.90;;;;;;5053141;28;20037;-84
2023/02/20 04:34:19;;;;;;;11.02;9.80;;;5.30;99.90;;;;;;5053510;28;20044;-83
2023/02/20 04:36:45;;;;;;;12.52;9.93;;;5.40;99.90;;;;;;5053242;28;20028;-84
2023/02/20 04:39:10;;;;;;;10.82;9.23;;;5.30;99.90;;;;;;5052784;28;20471;-84
2023/02/20 04:41:36;;;;;;;11.20;9.85;;;5.30;99.90;;;;;;5052967;28;20501;-83
2023/02/20 04:46:46;;;;;;;10.98;9.88;;;5.40;99.90;;;;;;5053136;28;20428;-84
2023/02/20 04:49:11;;;;;;;11.10;10.00;;;5.10;99.90;;;;;;5053169;28;20033;-84
2023/02/20 04:51:37;;;;;;;12.25;10.07;;;5.10;99.90;;;;;;5036468;28;20567;-83
2023/02/20 04:54:03;;;;;;;10.10;9.10;;;5.10;99.90;;;;;;5052618;28;20033;-83
2023/02/20 04:56:29;;;;;;;10.23;9.13;;;5.10;99.90;;;;;;5052644;28;20075;-83
2023/02/20 04:58:55;;;;;;;10.07;9.07;;;5.20;99.90;;;;;;5052856;28;20060;-83
2023/02/20 05:01:20;;;;;;;10.68;9.57;;;5.50;99.90;;;;;;5052706;28;20059;-84
2023/02/20 05:03:46;;;;;;;11.73;10.23;;;5.40;99.90;;;;;;5053983;28;20033;-82
2023/02/20 05:06:11;;;;;;;11.15;10.00;;;4.90;99.90;;;;;;5054641;28;20025;-83
2023/02/20 05:08:37;;;;;;;10.85;9.75;;;5.00;99.90;;;;;;5054824;28;20064;-83
2023/02/20 05:11:02;;;;;;;11.05;9.70;;;4.70;99.90;;;;;;5054863;28;20081;-83
2023/02/20 05:13:28;;;;;;;11.35;10.13;;;4.50;99.90;;;;;;5054937;28;20044;-84
2023/02/20 05:15:54;;;;;;;10.90;9.52;;;4.60;99.90;;;;;;5054600;28;20079;-83
2023/02/20 05:18:24;;;;;;;11.25;9.82;;;5.00;99.90;;;;;;5054840;28;20033;-83
2023/02/20 05:23:34;;;;;;;11.30;9.88;;;5.40;99.90;;;;;;5054214;28;20083;-83
2023/02/20 05:26:00;;;;;;;12.90;10.00;;;5.00;99.90;;;;;;5054475;28;20084;-84
2023/02/20 05:28:25;;;;;;;11.90;10.38;;;4.80;99.90;;;;;;5054317;28;20025;-84
2023/02/20 05:30:51;;;;;;;12.35;10.02;;;4.90;99.90;;;;;;5054276;28;20025;-83
2023/02/20 05:33:16;;;;;;;11.35;10.18;;;4.70;99.90;;;;;;5089098;28;20081;-83
2023/02/20 05:35:42;;;;;;;10.52;9.43;;;5.00;99.90;;;;;;5094566;28;20024;-84
2023/02/20 05:38:08;;;;;;;11.68;10.48;;;4.80;99.90;;;;;;5094429;28;20036;-83
2023/02/20 05:40:33;;;;;;;11.30;10.10;;;5.30;99.90;;;;;;5094346;28;20071;-82
2023/02/20 05:42:59;;;;;;;11.75;9.98;;;4.70;99.90;;;;;;5094259;28;20031;-83
2023/02/20 05:45:25;;;;;;;11.70;10.45;;;4.80;99.90;;;;;;5094735;28;20421;-84
2023/02/20 05:47:50;;;;;;;11.82;9.75;;;5.20;99.90;;;;;;5093991;28;20027;-83
2023/02/20 05:50:16;;;;;;;11.77;10.30;;;4.70;99.90;;;;;;5094230;28;20463;-84
2023/02/20 05:52:42;;;;;;;11.45;9.95;;;4.80;99.90;;;;;;5094366;28;20069;-84
2023/02/20 05:55:08;;;;;;;11.95;10.75;;;4.80;99.90;;;;;;5087209;28;20028;-83
2023/02/20 05:57:33;;;;;;;13.50;10.70;;;4.70;99.90;;;;;;5074100;28;20043;-84
2023/02/20 05:59:59;;;;;;;12.60;10.50;;;4.60;99.90;;;;;;5073829;28;20031;-84
2023/02/20 06:02:24;;;;;;;14.18;11.23;;;4.50;99.90;;;;;;5073807;28;20036;-84
2023/02/20 06:04:50;;;;;;;14.05;11.25;;;4.60;99.90;;;;;;5073774;28;20043;-84
2023/02/20 06:07:16;;;;;;;12.25;10.75;;;4.70;99.90;;;;;;5073636;28;20066;-84
2023/02/20 06:09:43;;;;;;;12.20;10.88;;;4.70;99.90;;;;;;5073497;28;20052;-83
2023/02/20 06:12:09;;;;;;;12.07;10.88;;;4.50;99.90;;;;;;5073925;28;20120;-84
2023/02/20 06:14:35;;;;;;;12.75;10.52;;;4.70;99.90;;;;;;5073371;28;20060;-83
2023/02/20 06:17:00;;;;;;;12.60;11.27;;;5.00;99.90;;;;;;5073429;28;20039;-83
2023/02/20 06:19:26;;;;;;;15.48;11.30;;;4.50;99.90;;;;;;5073118;28;20016;-84
2023/02/20 06:21:52;;;;;;;17.15;11.38;;;4.70;99.90;;;;;;5073450;28;20028;-84
2023/02/20 06:24:18;;;;;;;13.25;11.85;;;4.50;99.90;;;;;;5073289;28;20041;-84
2023/02/20 06:26:45;;;;;;;15.23;12.20;;;4.60;99.90;;;;;;5073269;28;20013;-83
2023/02/20 06:29:13;;;;;;;13.40;12.00;;;4.90;99.90;;;;;;5073098;28;20480;-83
2023/02/20 06:31:38;;;;;;;15.90;12.50;;;4.50;99.90;;;;;;5077039;28;20035;-83
2023/02/20 06:34:05;;;;;;;13.55;12.13;;;4.50;99.90;;;;;;5092188;28;20396;-82
2023/02/20 06:36:34;;;;;;;16.35;11.95;;;4.40;99.90;;;;;;5093041;28;20040;-85
2023/02/20 06:38:59;;;;;;;15.35;12.25;;;4.90;99.90;;;;;;5092850;28;20099;-82
2023/02/20 06:41:25;;;;;;;13.55;11.77;;;4.90;99.90;;;;;;5092876;28;20084;-82
2023/02/20 06:43:51;;;;;;;14.50;12.55;;;4.80;99.90;;;;;;5093064;28;20504;-82
2023/02/20 06:46:17;;;;;;;16.02;12.43;;;5.00;99.90;;;;;;5093170;28;20058;-84
2023/02/20 06:48:48;;;;;;;15.77;12.18;;;4.60;99.90;;;;;;5092661;28;20024;-82
2023/02/20 06:51:21;;;;;;;14.80;11.25;;;4.70;99.90;;;;;;5092811;28;20584;-82
2023/02/20 06:53:48;;;;;;;13.85;11.18;;;4.80;99.90;;;;;;5092807;28;20039;-82
2023/02/20 06:56:18;;;;;;;14.52;11.30;;;5.00;99.90;;;;;;5076809;28;20029;-84
2023/02/20 06:58:48;;;;;;;17.67;11.98;;;5.10;99.90;;;;;;5072773;28;20396;-84
2023/02/20 07:01:18;;;;;;;13.55;11.85;;;4.80;99.90;;;;;;5072532;28;20024;-82
2023/02/20 07:03:47;;;;;;;12.20;10.90;;;4.90;99.90;;;;;;5072342;28;20139;-84
2023/02/20 07:06:13;;;;;;;12.70;11.38;;;5.20;99.90;;;;;;5072255;28;20020;-82
2023/02/20 07:08:39;;;;;;;15.35;10.88;;;5.10;99.90;;;;;;5072410;28;20035;-83
2023/02/20 07:11:04;;;;;;;15.32;12.15;;;5.30;99.90;;;;;;5072223;28;20460;-82
2023/02/20 07:13:30;;;;;;;20.52;13.05;;;5.40;99.90;;;;;;5072229;28;20036;-85
2023/02/20 07:15:55;;;;;;;14.60;11.68;;;5.50;99.90;;;;;;5072466;28;20021;-85
2023/02/20 07:18:22;;;;;;;15.15;11.75;;;5.40;99.90;;;;;;5071891;28;20508;-85
2023/02/20 07:20:52;;;;;;;16.35;12.48;;;5.50;99.90;;;;;;5072250;28;20027;-82
2023/02/20 07:23:18;;;;;;;13.88;11.38;;;5.40;99.90;;;;;;5072111;28;20073;-82
2023/02/20 07:25:44;;;;;;;12.68;11.05;;;5.50;99.90;;;;;;5072529;28;20533;-84
2023/02/20 07:28:09;;;;;;;19.35;13.35;;;5.20;99.90;;;;;;5066382;28;20082;-85
2023/02/20 07:30:35;;;;;;;23.50;17.42;;;5.30;99.90;;;;;;5065002;28;20435;-85
2023/02/20 07:33:02;;;;;;;26.83;20.50;;;5.40;99.90;;;;;;5067961;28;20052;-85
2023/02/20 07:35:27;;;;;;;23.65;18.52;;;5.10;99.90;;;;;;5051791;28;20028;-82
2023/02/20 07:37:53;;;;;;;23.48;20.58;;;5.30;99.90;;;;;;5051722;28;20037;-85
2023/02/20 07:40:19;;;;;;;25.27;21.98;;;5.50;99.90;;;;;;5052553;28;20075;-89
2023/02/20 07:42:44;;;;;;;34.20;21.88;;;5.50;99.90;;;;;;5063410;28;20049;-85
2023/02/20 07:45:10;;;;;;;31.67;23.85;;;6.30;99.90;;;;;;5071782;28;20469;-85
2023/02/20 07:47:36;;;;;;;27.20;21.90;;;6.20;99.90;;;;;;5067974;28;20055;-94
2023/02/20 07:50:02;;;;;;;29.40;24.17;;;6.20;99.90;;;;;;5051626;28;20374;-93
2023/02/20 07:52:28;;;;;;;26.67;20.42;;;6.30;99.90;;;;;;5064187;28;20051;-88
2023/02/20 07:54:53;;;;;;;43.53;28.05;;;6.50;99.90;;;;;;5055667;28;20473;-92
2023/02/20 07:57:19;;;;;;;46.42;27.20;;;6.50;99.90;;;;;;5072538;28;20036;-92
2023/02/20 07:59:45;;;;;;;47.20;27.10;;;6.60;99.90;;;;;;5071739;28;20028;-91
2023/02/20 08:02:11;;;;;;;30.73;19.75;;;6.70;99.90;;;;;;5052470;28;20029;-92
2023/02/20 08:04:36;;;;;;;23.25;16.27;;;6.80;99.90;;;;;;5052474;28;20104;-91
2023/02/20 08:07:02;;;;;;;20.85;12.85;;;6.80;99.90;;;;;;5067218;28;20024;-88
2023/02/20 08:09:27;;;;;;;17.35;12.25;;;7.00;99.90;;;;;;5052734;28;20024;-92
2023/02/20 08:11:53;;;;;;;19.15;13.27;;;6.90;99.90;;;;;;5053966;28;20025;-89
2023/02/20 08:14:19;;;;;;;20.48;12.77;;;7.10;99.90;;;;;;5052223;28;20458;-90
2023/02/20 08:16:44;;;;;;;17.08;11.82;;;7.20;99.90;;;;;;5061155;28;20066;-91
2023/02/20 08:19:10;;;;;;;23.45;14.85;;;7.50;99.90;;;;;;5062498;28;20083;-89
2023/02/20 08:21:35;;;;;;;22.55;15.73;;;7.60;99.90;;;;;;5052959;28;20028;-91
2023/02/20 08:24:01;;;;;;;30.02;15.63;;;7.80;99.90;;;;;;5063842;28;20025;-93
2023/02/20 08:26:27;;;;;;;21.13;14.30;;;8.00;99.90;;;;;;5071280;28;20028;-90
2023/02/20 08:28:53;;;;;;;17.58;12.35;;;8.40;99.90;;;;;;5072734;28;20052;-94
2023/02/20 08:31:20;;;;;;;25.10;12.55;;;8.60;99.90;;;;;;5076228;28;20024;-93
2023/02/20 08:33:45;;;;;;;16.80;10.95;;;8.90;99.90;;;;;;5069565;28;20307;-92
2023/02/20 08:36:11;;;;;;;20.73;10.52;;;9.60;99.90;;;;;;5059576;28;20107;-92
2023/02/20 08:38:38;;;;;;;17.25;10.98;;;11.60;99.90;;;;;;5054984;28;20048;-92
2023/02/20 08:41:09;;;;;;;19.60;10.35;;;12.90;99.90;;;;;;5072923;28;20044;-92
2023/02/20 08:43:36;;;;;;;23.15;10.65;;;13.00;99.90;;;;;;5070447;28;20028;-92
2023/02/20 08:46:03;;;;;;;23.80;10.32;;;13.80;99.90;;;;;;5052187;28;20025;-92
2023/02/20 08:48:29;;;;;;;26.85;10.88;;;14.70;99.90;;;;;;5059112;28;20084;-92
2023/02/20 08:50:54;;;;;;;18.27;9.70;;;15.00;99.90;;;;;;5053052;28;20052;-92
2023/02/20 08:53:20;;;;;;;16.90;8.57;;;15.70;99.90;;;;;;5052450;28;20103;-92
2023/02/20 08:55:46;;;;;;;13.43;8.82;;;16.10;99.90;;;;;;5060971;28;20146;-93
2023/02/20 08:58:12;;;;;;;12.25;8.80;;;16.50;99.90;;;;;;5074820;28;20131;-92
2023/02/20 09:00:38;;;;;;;17.33;9.40;;;16.80;99.90;;;;;;5059126;28;20036;-92
2023/02/20 09:03:07;;;;;;;12.43;9.05;;;17.30;99.90;;;;;;5073118;28;20077;-92
2023/02/20 09:05:33;;;;;;;17.27;9.25;;;18.00;99.90;;;;;;5071821;28;20495;-92
2023/02/20 09:08:00;;;;;;;14.32;9.35;;;18.20;99.90;;;;;;5054702;28;20035;-93
2023/02/20 09:10:25;;;;;;;12.18;9.07;;;18.50;99.90;;;;;;5056241;28;20030;-92
2023/02/20 09:12:51;;;;;;;11.30;8.63;;;18.90;99.90;;;;;;5056851;28;20106;-93
2023/02/20 09:15:17;;;;;;;12.63;8.80;;;19.10;99.90;;;;;;5055589;28;20086;-92
2023/02/20 09:17:44;;;;;;;9.63;8.73;;;19.20;99.90;;;;;;5068116;28;20398;-93
2023/02/20 09:20:11;;;;;;;10.27;9.27;;;18.70;99.90;;;;;;5069125;28;20025;-94
2023/02/20 09:22:36;;;;;;;9.25;8.30;;;19.40;99.90;;;;;;5065111;28;20043;-92
2023/02/20 09:25:03;;;;;;;9.50;8.52;;;20.10;99.90;;;;;;5074064;28;20028;-91
2023/02/20 09:27:29;;;;;;;9.32;8.38;;;19.80;99.90;;;;;;5075487;28;20032;-91
2023/02/20 09:29:55;;;;;;;11.27;8.32;;;19.70;99.90;;;;;;5080972;28;20040;-96
2023/02/20 09:32:21;;;;;;;9.13;8.32;;;19.90;99.90;;;;;;5072361;28;20028;-90
2023/02/20 09:34:46;;;;;;;13.18;9.07;;;20.10;99.90;;;;;;5064834;28;20031;-93
2023/02/20 09:37:13;;;;;;;12.25;8.95;;;21.30;99.90;;;;;;5058727;28;20044;-94
2023/02/20 09:39:39;;;;;;;9.90;8.70;;;20.70;99.90;;;;;;5065889;28;20105;-94
2023/02/20 09:42:22;;;;;;;9.20;8.30;;;21.30;99.90;;;;;;5067720;28;20084;-91
2023/02/20 09:44:58;;;;;;;8.27;7.55;;;22.10;99.90;;;;;;5056045;28;20051;-92
2023/02/20 09:48:02;;;;;;;9.02;8.18;;;21.80;99.90;;;;;;5058055;28;20009;-94
2023/02/20 09:50:49;;;;;;;8.65;7.68;;;21.60;99.90;;;;;;5054767;28;20054;-92
2023/02/20 09:53:24;;;;;;;9.35;8.20;;;21.60;99.90;;;;;;5063588;28;20043;-92
2023/02/20 09:55:51;;;;;;;9.90;8.43;;;21.60;99.90;;;;;;5066054;28;20021;-90
2023/02/20 09:58:36;;;;;;;11.15;8.20;;;21.60;99.90;;;;;;5054226;28;20473;-91
2023/02/20 10:01:02;;;;;;;9.85;8.13;;;22.20;99.90;;;;;;5068679;28;20082;-93
2023/02/20 10:03:29;;;;;;;8.93;8.13;;;21.80;99.90;;;;;;5069434;28;20017;-95
2023/02/20 10:05:56;;;;;;;9.55;7.82;;;21.80;99.90;;;;;;5069797;28;20040;-95
2023/02/20 10:08:22;;;;;;;9.27;8.38;;;21.90;99.90;;;;;;5075176;28;20488;-93
2023/02/20 10:10:50;;;;;;;7.70;7.10;;;21.60;99.90;;;;;;5074146;28;20020;-92
2023/02/20 10:13:43;;;;;;;11.00;7.40;;;22.30;99.90;;;;;;5074126;28;20071;-91
2023/02/20 10:16:25;;;;;;;7.47;6.70;;;22.70;99.90;;;;;;5074036;28;20016;-93
2023/02/20 10:19:19;;;;;;;7.22;6.63;;;22.40;99.90;;;;;;5073136;28;20396;-96
2023/02/20 10:21:50;;;;;;;8.02;7.30;;;22.80;99.90;;;;;;5062764;28;20021;-92
2023/02/20 10:24:52;;;;;;;7.68;7.07;;;21.70;99.90;;;;;;5074362;28;20021;-95
2023/02/20 10:27:27;;;;;;;8.10;7.40;;;22.50;99.90;;;;;;5052350;28;20619;-92
2023/02/20 10:29:54;;;;;;;6.60;5.97;;;23.80;99.90;;;;;;5054326;28;20071;-94
2023/02/20 10:32:51;;;;;;;6.72;6.13;;;24.50;99.90;;;;;;5062619;28;20033;-94
2023/02/20 10:35:25;;;;;;;6.78;6.18;;;25.10;99.90;;;;;;5032862;28;20497;-94
2023/02/20 10:37:55;;;;;;;7.03;6.35;;;26.10;99.90;;;;;;5052516;28;20059;-94
2023/02/20 10:40:40;;;;;;;6.70;6.07;;;25.40;99.90;;;;;;5051298;28;20120;-95
2023/02/20 10:43:17;;;;;;;5.50;5.10;;;25.00;99.90;;;;;;5051119;28;20079;-96
2023/02/20 10:45:48;;;;;;;6.40;5.80;;;24.30;99.90;;;;;;5054015;28;20112;-94
2023/02/20 10:48:14;;;;;;;6.47;5.85;;;25.20;99.90;;;;;;5054025;28;20120;-94
2023/02/20 10:50:39;;;;;;;7.07;6.43;;;25.50;99.90;;;;;;5053323;28;20053;-93
2023/02/20 10:53:08;;;;;;;8.02;6.78;;;25.10;99.90;;;;;;5038513;28;20067;-96
2023/02/20 10:55:43;;;;;;;8.80;6.85;;;24.90;99.90;;;;;;5048000;28;20412;-96
2023/02/20 10:58:39;;;;;;;7.35;6.63;;;24.50;99.90;;;;;;5067117;28;20147;-95
2023/02/20 11:01:08;;;;;;;6.65;6.13;;;24.10;99.90;;;;;;4984752;28;20023;-96
2023/02/20 11:04:10;;;;;;;7.05;6.35;;;24.50;99.90;;;;;;4986306;28;20557;-95
2023/02/20 11:06:39;;;;;;;7.18;6.32;;;24.70;99.90;;;;;;5012492;28;20572;-96
2023/02/20 11:09:07;;;;;;;7.05;6.38;;;25.10;99.90;;;;;;5006797;28;20038;-93
2023/02/20 11:11:38;;;;;;;7.07;6.47;;;24.90;99.90;;;;;;5009083;28;20072;-94
2023/02/20 11:14:25;;;;;;;7.78;7.05;;;25.00;99.90;;;;;;5013964;28;20112;-96
2023/02/20 11:17:27;;;;;;;7.20;6.50;;;25.60;99.90;;;;;;5010654;28;20114;-95
2023/02/20 11:20:48;;;;;;;6.85;6.30;;;25.00;99.90;;;;;;4992664;28;20053;-96
2023/02/20 11:23:32;;;;;;;7.32;6.60;;;25.90;99.90;;;;;;5233571;23;20057;-95
2023/02/20 11:28:35;;;;;;;7.13;6.43;;;26.60;99.90;;;;;;4994640;26;20054;-96
2023/02/20 11:31:06;;;;;;;6.93;6.15;;;25.60;99.90;;;;;;4999604;28;20118;-96
2023/02/20 11:33:44;;;;;;;6.30;5.80;;;25.90;99.90;;;;;;5002364;28;20034;-92
2023/02/20 11:36:19;;;;;;;7.07;6.38;;;26.10;99.90;;;;;;5001274;28;20026;-89
2023/02/20 11:38:46;;;;;;;7.28;6.15;;;25.90;99.90;;;;;;4994097;28;20403;-89
2023/02/20 11:41:26;;;;;;;6.60;6.10;;;25.70;99.90;;;;;;4993040;28;20026;-94
2023/02/20 11:44:18;;;;;;;6.97;6.38;;;25.70;99.90;;;;;;4992570;28;20042;-93
2023/02/20 11:46:46;;;;;;;6.55;5.95;;;26.80;99.90;;;;;;4993347;28;20029;-91
2023/02/20 11:49:24;;;;;;;6.68;6.18;;;26.70;99.90;;;;;;4993010;28;20109;-90
2023/02/20 11:51:49;;;;;;;7.15;6.50;;;26.50;99.90;;;;;;4993115;28;20053;-91
2023/02/20 11:54:20;;;;;;;7.13;6.53;;;26.80;99.90;;;;;;4983245;28;20057;-90
2023/02/20 11:57:17;;;;;;;6.90;6.40;;;26.40;99.90;;;;;;4975333;28;20387;-88
2023/02/20 11:59:44;;;;;;;6.40;5.90;;;26.20;99.90;;;;;;4990628;28;20117;-88
2023/02/20 12:02:16;;;;;;;5.85;5.35;;;26.70;99.90;;;;;;4992089;28;20097;-88
2023/02/20 12:05:08;;;;;;;7.00;5.40;;;26.50;99.90;;;;;;4992642;28;20040;-88
2023/02/20 12:07:38;;;;;;;7.28;5.60;;;26.90;99.90;;;;;;4992426;28;20042;-88
2023/02/20 12:10:07;;;;;;;6.78;5.68;;;26.00;99.90;;;;;;4992858;28;20034;-88
2023/02/20 12:12:33;;;;;;;5.82;5.35;;;25.80;99.90;;;;;;4992727;28;20057;-88
2023/02/20 12:14:58;;;;;;;5.50;5.00;;;26.00;99.90;;;;;;4992530;28;20498;-88
2023/02/20 12:17:58;;;;;;;5.47;4.97;;;25.90;99.90;;;;;;4992349;28;20030;-88
2023/02/20 12:20:29;;;;;;;9.50;5.60;;;25.90;99.90;;;;;;4992500;28;20572;-89
2023/02/20 12:23:12;;;;;;;4.78;4.38;;;25.50;99.90;;;;;;4992128;28;20026;-88
2023/02/20 12:25:52;;;;;;;4.88;4.45;;;26.20;99.90;;;;;;4992755;28;20026;-88
2023/02/20 12:28:27;;;;;;;4.43;4.13;;;25.90;99.90;;;;;;4992176;28;20046;-88
2023/02/20 12:30:56;;;;;;;5.97;4.80;;;26.10;99.90;;;;;;4992609;28;20113;-88
2023/02/20 12:33:50;;;;;;;5.65;5.05;;;26.40;99.90;;;;;;4996249;28;20034;-88
2023/02/20 12:36:41;;;;;;;4.85;4.45;;;26.40;99.90;;;;;;4995799;28;20062;-88
2023/02/20 12:39:41;;;;;;;5.10;4.60;;;26.70;99.90;;;;;;4996023;28;20478;-87
2023/02/20 12:42:48;;;;;;;8.35;4.85;;;26.30;99.90;;;;;;4992072;28;20483;-88
2023/02/20 12:45:34;;;;;;;5.03;4.53;;;26.00;99.90;;;;;;4996057;28;20092;-88
2023/02/20 12:48:52;;;;;;;6.40;4.40;;;26.70;99.90;;;;;;4996048;28;20101;-88
2023/02/20 12:51:46;;;;;;;4.28;3.95;;;27.00;99.90;;;;;;4973846;28;20058;-88
2023/02/20 12:54:17;;;;;;;5.07;4.03;;;25.80;99.90;;;;;;4897715;29;20110;-88
2023/02/20 12:56:54;;;;;;;5.28;4.38;;;25.80;99.90;;;;;;4916208;29;20068;-88
2023/02/20 12:59:47;;;;;;;4.82;4.22;;;25.20;99.90;;;;;;4916565;29;20052;-88
2023/02/20 13:02:38;;;;;;;4.32;3.97;;;25.60;99.90;;;;;;4916639;29;20077;-88
2023/02/20 13:05:08;;;;;;;6.10;4.00;;;25.10;99.90;;;;;;4910933;29;20044;-88
2023/02/20 13:07:39;;;;;;;5.57;4.00;;;25.20;99.90;;;;;;4916544;29;20028;-88
2023/02/20 13:10:14;;;;;;;5.05;4.55;;;25.60;99.90;;;;;;4916556;29;20044;-88
2023/02/20 13:12:40;;;;;;;4.90;4.28;;;25.70;99.90;;;;;;4916327;29;20032;-88
2023/02/20 13:15:20;;;;;;;4.18;3.85;;;25.30;99.90;;;;;;4916443;29;20087;-88
2023/02/20 13:18:05;;;;;;;6.88;4.65;;;25.50;99.90;;;;;;4916449;29;20555;-88
2023/02/20 13:20:40;;;;;;;5.18;4.68;;;25.90;99.90;;;;;;4915958;29;20028;-88
2023/02/20 13:23:27;;;;;;;6.05;4.55;;;25.90;99.90;;;;;;4933965;29;20543;-87
2023/02/20 13:25:55;;;;;;;5.35;4.85;;;25.40;99.90;;;;;;4935593;29;20520;-88
2023/02/20 13:28:44;;;;;;;5.70;4.53;;;24.90;99.90;;;;;;4920266;29;20095;-88
2023/02/20 13:31:17;;;;;;;5.93;4.40;;;25.60;99.90;;;;;;4960854;28;20430;-88